Time;durP1;ratioP1;P1;durP2;ratioP2;P2;SDS_P1;SDS_P2;PMS_P1;PMS_P2;Temp;Humidity;BMP_temperature;BMP_pressure;BME280_temperature;BME280_humidity;BME280_pressure;Samples;Min_cycle;Max_cycle;Signal;HPM_P1;HPM_P2
2023/09/16 00:02:17;;;;;;;;;;;15.60;85.50;;;;;;5017713;28;19913;-85
2023/09/16 00:04:42;;;;;;;;;;;15.70;85.30;;;;;;5005745;28;19952;-85
2023/09/16 00:07:08;;;;;;;;;;;15.60;85.70;;;;;;5003475;28;19924;-85
2023/09/16 00:09:34;;;;;;;;;;;15.60;85.60;;;;;;5001844;28;19996;-84
2023/09/16 00:12:00;;;;;;;;;;;15.60;85.90;;;;;;5031665;28;19913;-84
2023/09/16 00:14:25;;;;;;;;;;;15.60;85.90;;;;;;5008465;28;19916;-84
2023/09/16 00:16:52;;;;;;;;;;;15.60;85.90;;;;;;5032798;28;19920;-83
2023/09/16 00:19:18;;;;;;;;;;;15.60;85.90;;;;;;5020169;28;19960;-84
2023/09/16 00:21:45;;;;;;;;;;;15.60;86.00;;;;;;5015688;28;19918;-84
2023/09/16 00:24:11;;;;;;;;;;;15.60;86.00;;;;;;5033713;28;20405;-84
2023/09/16 00:26:40;;;;;;;;;;;15.60;86.00;;;;;;5010402;28;19917;-84
2023/09/16 00:29:06;;;;;;;;;;;15.60;86.10;;;;;;5031562;28;19934;-84
2023/09/16 00:31:33;;;;;;;;;;;15.60;86.10;;;;;;5007283;28;19936;-84
2023/09/16 00:33:58;;;;;;;;;;;15.60;85.70;;;;;;5006838;28;19914;-84
2023/09/16 00:36:24;;;;;;;;;;;15.70;85.70;;;;;;5030844;28;19936;-84
2023/09/16 00:38:50;;;;;;;;;;;15.80;85.80;;;;;;5029005;28;19918;-84
2023/09/16 00:41:15;;;;;;;;;;;15.80;85.30;;;;;;5016034;28;19976;-84
2023/09/16 00:43:41;;;;;;;;;;;15.90;85.50;;;;;;5006207;28;19919;-84
2023/09/16 00:46:06;;;;;;;;;;;15.90;85.50;;;;;;5027736;28;20399;-84
2023/09/16 00:48:32;;;;;;;;;;;16.00;85.50;;;;;;5008808;28;19909;-84
2023/09/16 00:50:58;;;;;;;;;;;16.00;85.70;;;;;;5010420;28;19940;-84
2023/09/16 00:53:24;;;;;;;;;;;16.00;85.70;;;;;;5016321;28;19959;-84
2023/09/16 00:55:49;;;;;;;;;;;16.10;85.90;;;;;;5017213;28;19922;-84
2023/09/16 00:58:17;;;;;;;;;;;16.10;85.60;;;;;;5015111;28;19917;-85
2023/09/16 01:00:43;;;;;;;;;;;16.10;85.40;;;;;;5014977;28;20322;-84
2023/09/16 01:03:09;;;;;;;;;;;16.10;85.50;;;;;;5010926;28;19914;-84
2023/09/16 01:05:35;;;;;;;;;;;16.20;85.60;;;;;;5010321;28;19919;-84
2023/09/16 01:08:01;;;;;;;;;;;16.20;85.50;;;;;;5029647;28;19918;-85
2023/09/16 01:10:26;;;;;;;;;;;16.20;85.20;;;;;;5012157;28;20008;-85
2023/09/16 01:12:53;;;;;;;;;;;16.10;85.50;;;;;;5034165;28;20318;-84
2023/09/16 01:15:20;;;;;;;;;;;16.20;85.60;;;;;;5007552;28;19959;-84
2023/09/16 01:17:46;;;;;;;;;;;16.20;85.70;;;;;;5001378;28;19914;-84
2023/09/16 01:20:13;;;;;;;;;;;16.20;85.90;;;;;;5010785;28;19922;-85
2023/09/16 01:22:44;;;;;;;;;;;16.30;85.70;;;;;;5008691;28;19955;-85
2023/09/16 01:25:10;;;;;;;;;;;16.20;85.70;;;;;;5036638;28;19924;-85
2023/09/16 01:27:37;;;;;;;;;;;16.20;85.90;;;;;;5009089;28;19909;-84
2023/09/16 01:30:05;;;;;;;;;;;16.20;85.90;;;;;;5027894;28;19914;-84
2023/09/16 01:32:34;;;;;;;;;;;16.20;85.70;;;;;;5010828;28;20286;-84
2023/09/16 01:35:04;;;;;;;;;;;16.20;85.80;;;;;;5030851;28;19909;-84
2023/09/16 01:37:30;;;;;;;;;;;16.30;85.80;;;;;;5006260;28;19971;-85
2023/09/16 01:39:56;;;;;;;;;;;16.30;85.80;;;;;;5030835;28;19937;-84
2023/09/16 01:42:22;;;;;;;;;;;16.30;85.90;;;;;;5021452;28;19981;-86
2023/09/16 01:44:48;;;;;;;;;;;16.30;85.90;;;;;;5005097;28;20000;-83
2023/09/16 01:47:14;;;;;;;;;;;16.40;85.90;;;;;;5008170;28;19918;-84
2023/09/16 01:49:39;;;;;;;;;;;16.40;85.70;;;;;;5015513;28;19936;-84
2023/09/16 01:52:05;;;;;;;;;;;16.30;85.70;;;;;;5016996;28;20028;-84
2023/09/16 01:54:30;;;;;;;;;;;16.40;85.70;;;;;;5010884;28;20291;-84
2023/09/16 01:56:56;;;;;;;;;;;16.30;85.80;;;;;;5014368;28;19979;-84
2023/09/16 01:59:21;;;;;;;;;;;16.30;85.90;;;;;;5020012;28;19943;-84
2023/09/16 02:01:47;;;;;;;;;;;16.30;86.20;;;;;;5010487;28;19913;-84
2023/09/16 02:04:12;;;;;;;;;;;16.30;86.40;;;;;;5034292;28;19917;-86
2023/09/16 02:06:38;;;;;;;;;;;16.30;86.20;;;;;;5013399;28;20008;-86
2023/09/16 02:09:04;;;;;;;;;;;16.40;85.90;;;;;;5030524;28;19964;-86
2023/09/16 02:11:31;;;;;;;;;;;16.40;85.90;;;;;;5013890;28;19913;-86
2023/09/16 02:13:57;;;;;;;;;;;16.40;86.10;;;;;;5009766;28;19918;-86
2023/09/16 02:16:23;;;;;;;;;;;16.30;86.20;;;;;;5016896;28;20395;-85
2023/09/16 02:18:48;;;;;;;;;;;16.40;85.90;;;;;;5004726;28;19921;-86
2023/09/16 02:21:15;;;;;;;;;;;16.40;85.70;;;;;;5034955;28;20374;-85
2023/09/16 02:23:40;;;;;;;;;;;16.40;86.00;;;;;;5017436;28;19952;-86
2023/09/16 02:26:06;;;;;;;;;;;16.30;85.90;;;;;;5008035;28;19964;-86
2023/09/16 02:28:31;;;;;;;;;;;16.30;85.80;;;;;;5007097;28;19952;-85
2023/09/16 02:30:57;;;;;;;;;;;16.30;85.90;;;;;;5014279;28;20356;-86
2023/09/16 02:33:22;;;;;;;;;;;16.30;86.00;;;;;;5016339;28;19909;-86
2023/09/16 02:35:48;;;;;;;;;;;16.40;86.20;;;;;;5007164;28;19922;-84
2023/09/16 02:38:13;;;;;;;;;;;16.40;86.10;;;;;;5020118;28;19941;-85
2023/09/16 02:40:40;;;;;;;;;;;16.40;86.10;;;;;;5016976;28;19916;-84
2023/09/16 02:43:06;;;;;;;;;;;16.40;86.10;;;;;;5012963;28;19918;-84
2023/09/16 02:45:31;;;;;;;;;;;16.40;86.10;;;;;;5015428;28;20275;-84
2023/09/16 02:47:57;;;;;;;;;;;16.50;85.80;;;;;;5011117;28;20004;-84
2023/09/16 02:50:22;;;;;;;;;;;16.50;85.90;;;;;;5018227;28;20620;-84
2023/09/16 02:52:48;;;;;;;;;;;16.50;85.80;;;;;;5010395;28;20004;-83
2023/09/16 02:55:16;;;;;;;;;;;16.50;85.20;;;;;;5018330;28;20004;-84
2023/09/16 02:57:41;;;;;;;;;;;16.50;85.30;;;;;;5011188;28;19909;-84
2023/09/16 03:00:07;;;;;;;;;;;16.50;85.20;;;;;;5031186;28;19924;-84
2023/09/16 03:02:32;;;;;;;;;;;16.50;84.60;;;;;;5017325;28;19948;-84
2023/09/16 03:04:58;;;;;;;;;;;16.50;84.60;;;;;;5019563;28;19920;-85
2023/09/16 03:07:24;;;;;;;;;;;16.40;84.60;;;;;;5010632;28;19916;-84
2023/09/16 03:09:49;;;;;;;;;;;16.50;84.80;;;;;;5010322;28;20430;-85
2023/09/16 03:12:15;;;;;;;;;;;16.40;84.70;;;;;;5010869;28;19956;-85
2023/09/16 03:14:40;;;;;;;;;;;16.40;84.90;;;;;;5003219;28;20394;-85
2023/09/16 03:17:06;;;;;;;;;;;16.30;85.30;;;;;;5031576;28;20364;-85
2023/09/16 03:19:31;;;;;;;;;;;16.40;85.00;;;;;;5014811;28;19915;-85
2023/09/16 03:21:57;;;;;;;;;;;16.40;84.60;;;;;;5018818;28;19913;-85
2023/09/16 03:24:22;;;;;;;;;;;16.40;84.60;;;;;;5015338;28;19921;-85
2023/09/16 03:26:48;;;;;;;;;;;16.30;84.80;;;;;;5009957;28;19914;-85
2023/09/16 03:29:13;;;;;;;;;;;16.30;85.00;;;;;;5036256;28;19917;-84
2023/09/16 03:31:39;;;;;;;;;;;16.30;85.10;;;;;;5002605;28;19913;-85
2023/09/16 03:34:04;;;;;;;;;;;16.30;85.40;;;;;;5032977;28;19910;-84
2023/09/16 03:36:30;;;;;;;;;;;16.30;85.40;;;;;;5009769;28;19909;-85
2023/09/16 03:38:55;;;;;;;;;;;16.30;85.50;;;;;;5032088;28;19968;-84
2023/09/16 03:41:21;;;;;;;;;;;16.30;85.40;;;;;;5015125;28;19909;-83
2023/09/16 03:43:47;;;;;;;;;;;16.40;85.30;;;;;;5009069;28;20019;-84
2023/09/16 03:46:12;;;;;;;;;;;16.30;85.10;;;;;;5002980;28;20403;-84
2023/09/16 03:48:38;;;;;;;;;;;16.40;85.30;;;;;;5011691;28;19913;-85
2023/09/16 03:51:06;;;;;;;;;;;16.40;85.40;;;;;;5031482;28;20011;-84
2023/09/16 03:53:33;;;;;;;;;;;16.40;85.00;;;;;;5014476;28;19913;-86
2023/09/16 03:55:58;;;;;;;;;;;16.40;85.40;;;;;;5004550;28;19956;-86
2023/09/16 03:58:23;;;;;;;;;;;16.40;85.20;;;;;;5040496;28;19909;-86
2023/09/16 04:00:49;;;;;;;;;;;16.40;85.20;;;;;;5011911;28;19961;-85
2023/09/16 04:03:14;;;;;;;;;;;16.40;85.20;;;;;;5032797;28;19917;-85
2023/09/16 04:05:40;;;;;;;;;;;16.50;85.40;;;;;;5010733;28;19956;-85
2023/09/16 04:08:05;;;;;;;;;;;16.50;85.10;;;;;;5011024;28;19918;-85
2023/09/16 04:10:31;;;;;;;;;;;16.50;85.30;;;;;;5014276;28;19996;-85
2023/09/16 04:12:56;;;;;;;;;;;16.40;85.50;;;;;;5007401;28;19945;-85
2023/09/16 04:15:22;;;;;;;;;;;16.40;85.50;;;;;;5008145;28;20481;-85
2023/09/16 04:17:49;;;;;;;;;;;16.40;85.60;;;;;;5014073;28;19921;-85
2023/09/16 04:20:15;;;;;;;;;;;16.40;85.50;;;;;;5019933;28;20362;-85
2023/09/16 04:22:41;;;;;;;;;;;16.30;85.50;;;;;;5012456;28;19913;-85
2023/09/16 04:25:06;;;;;;;;;;;16.30;85.80;;;;;;5012173;28;20030;-85
2023/09/16 04:27:32;;;;;;;;;;;16.20;85.90;;;;;;5015414;28;19909;-85
2023/09/16 04:29:57;;;;;;;;;;;16.20;85.90;;;;;;5010418;28;19913;-85
2023/09/16 04:32:23;;;;;;;;;;;16.10;85.70;;;;;;5032959;28;19921;-86
2023/09/16 04:34:48;;;;;;;;;;;16.10;85.60;;;;;;5007200;28;19933;-86
2023/09/16 04:37:15;;;;;;;;;;;16.00;86.10;;;;;;5028807;28;19918;-86
2023/09/16 04:39:42;;;;;;;;;;;16.00;86.10;;;;;;5010856;28;19913;-86
2023/09/16 04:42:08;;;;;;;;;;;16.10;86.20;;;;;;5029902;28;19917;-86
2023/09/16 04:44:38;;;;;;;;;;;16.00;86.30;;;;;;5010490;28;20539;-85
2023/09/16 04:47:07;;;;;;;;;;;16.00;86.50;;;;;;5028777;28;19921;-85
2023/09/16 04:49:33;;;;;;;;;;;15.90;86.60;;;;;;5011860;28;19909;-85
2023/09/16 04:51:58;;;;;;;;;;;15.90;86.60;;;;;;5027134;28;19920;-84
2023/09/16 04:54:24;;;;;;;;;;;15.90;86.70;;;;;;5019643;28;19910;-85
2023/09/16 04:56:49;;;;;;;;;;;15.80;86.80;;;;;;5010368;28;20386;-85
2023/09/16 04:59:15;;;;;;;;;;;15.80;86.90;;;;;;5021890;28;20199;-87
2023/09/16 05:01:40;;;;;;;;;;;15.80;86.60;;;;;;5022086;28;20000;-83
2023/09/16 05:04:06;;;;;;;;;;;15.70;86.70;;;;;;5037387;28;19975;-85
2023/09/16 05:06:31;;;;;;;;;;;15.60;86.60;;;;;;5014663;28;19913;-85
2023/09/16 05:08:57;;;;;;;;;;;15.60;86.40;;;;;;5039516;28;20271;-85
2023/09/16 05:11:23;;;;;;;;;;;15.60;86.60;;;;;;5019777;28;19944;-85
2023/09/16 05:13:50;;;;;;;;;;;15.70;86.90;;;;;;5004180;28;20394;-84
2023/09/16 05:16:16;;;;;;;;;;;15.60;86.90;;;;;;5013352;28;19961;-85
2023/09/16 05:18:41;;;;;;;;;;;15.60;87.00;;;;;;5012322;28;19913;-86
2023/09/16 05:21:07;;;;;;;;;;;15.60;87.20;;;;;;5016350;28;19913;-87
2023/09/16 05:23:34;;;;;;;;;;;15.60;87.20;;;;;;5012913;28;20406;-86
2023/09/16 05:25:59;;;;;;;;;;;15.60;87.30;;;;;;5001733;28;19918;-86
2023/09/16 05:28:25;;;;;;;;;;;15.60;87.20;;;;;;5009009;28;19921;-85
2023/09/16 05:30:50;;;;;;;;;;;15.60;87.20;;;;;;5011097;28;19913;-84
2023/09/16 05:33:16;;;;;;;;;;;15.70;86.90;;;;;;5019566;28;20298;-84
2023/09/16 05:35:43;;;;;;;;;;;15.70;87.00;;;;;;5014775;28;19913;-84
2023/09/16 05:38:08;;;;;;;;;;;15.60;87.00;;;;;;5031592;28;19924;-85
2023/09/16 05:40:36;;;;;;;;;;;15.60;86.80;;;;;;5019596;28;20283;-86
2023/09/16 05:43:01;;;;;;;;;;;15.70;86.50;;;;;;5036536;28;19914;-85
2023/09/16 05:45:27;;;;;;;;;;;15.60;86.50;;;;;;5017387;28;19925;-84
2023/09/16 05:47:52;;;;;;;;;;;15.70;86.30;;;;;;5013796;28;19954;-84
2023/09/16 05:50:18;;;;;;;;;;;15.80;86.30;;;;;;5013684;28;19914;-85
2023/09/16 05:52:43;;;;;;;;;;;15.70;86.70;;;;;;5018609;28;19913;-84
2023/09/16 05:55:09;;;;;;;;;;;15.70;86.70;;;;;;5023927;28;19925;-83
2023/09/16 05:57:35;;;;;;;;;;;15.70;86.50;;;;;;5005291;28;20406;-84
2023/09/16 06:00:01;;;;;;;;;;;15.70;86.50;;;;;;5006798;28;19913;-86
2023/09/16 06:02:26;;;;;;;;;;;15.70;86.60;;;;;;5016183;28;19918;-87
2023/09/16 06:04:52;;;;;;;;;;;15.80;86.40;;;;;;5018839;28;19918;-87
2023/09/16 06:07:17;;;;;;;;;;;15.80;86.60;;;;;;5021055;28;19913;-88
2023/09/16 06:09:43;;;;;;;;;;;15.90;86.10;;;;;;5011911;28;19916;-88
2023/09/16 06:12:08;;;;;;;;;;;16.00;86.10;;;;;;5018173;28;20008;-87
2023/09/16 06:14:38;;;;;;;;;;;16.00;86.20;;;;;;5015117;28;19921;-90
2023/09/16 06:17:04;;;;;;;;;;;15.90;86.00;;;;;;5018951;28;19913;-88
2023/09/16 06:19:29;;;;;;;;;;;16.00;86.00;;;;;;5011524;28;20346;-89
2023/09/16 06:21:55;;;;;;;;;;;16.00;86.10;;;;;;5012045;28;19910;-86
2023/09/16 06:24:21;;;;;;;;;;;16.00;86.10;;;;;;5015797;28;19979;-85
2023/09/16 06:26:47;;;;;;;;;;;16.00;86.10;;;;;;5009091;28;19963;-87
2023/09/16 06:29:12;;;;;;;;;;;16.00;86.10;;;;;;5026509;28;19995;-88
2023/09/16 06:31:38;;;;;;;;;;;16.00;85.50;;;;;;5014848;28;19913;-88
2023/09/16 06:34:05;;;;;;;;;;;16.00;85.60;;;;;;5008463;28;19914;-88
2023/09/16 06:36:30;;;;;;;;;;;16.00;85.60;;;;;;5010549;28;19914;-89
2023/09/16 06:38:56;;;;;;;;;;;16.10;85.60;;;;;;5008737;28;19920;-88
2023/09/16 06:41:21;;;;;;;;;;;16.10;85.20;;;;;;5033474;28;20396;-88
2023/09/16 06:43:47;;;;;;;;;;;16.10;85.50;;;;;;5015392;28;19989;-89
2023/09/16 06:46:17;;;;;;;;;;;16.10;85.40;;;;;;5027293;28;19921;-88
2023/09/16 06:48:44;;;;;;;;;;;16.10;85.50;;;;;;5012681;28;19914;-88
2023/09/16 06:51:09;;;;;;;;;;;16.20;85.60;;;;;;5011136;28;19965;-88
2023/09/16 06:53:35;;;;;;;;;;;16.40;84.60;;;;;;5010584;28;19914;-88
2023/09/16 06:56:00;;;;;;;;;;;16.40;84.40;;;;;;5006204;28;19914;-89
2023/09/16 06:58:26;;;;;;;;;;;16.40;84.90;;;;;;5007335;28;19913;-88
2023/09/16 07:00:51;;;;;;;;;;;16.30;85.30;;;;;;5016115;28;19971;-89
2023/09/16 07:03:17;;;;;;;;;;;16.40;85.50;;;;;;5013711;28;19921;-88
2023/09/16 07:05:46;;;;;;;;;;;16.50;85.60;;;;;;5015212;28;20005;-88
2023/09/16 07:08:12;;;;;;;;;;;16.50;85.60;;;;;;5012663;28;20405;-87
2023/09/16 07:10:38;;;;;;;;;;;16.50;85.60;;;;;;5011595;28;19961;-88
2023/09/16 07:13:03;;;;;;;;;;;16.60;85.70;;;;;;5009695;28;19951;-89
2023/09/16 07:15:29;;;;;;;;;;;16.60;85.80;;;;;;5010310;28;19918;-88
2023/09/16 07:17:54;;;;;;;;;;;16.70;85.50;;;;;;5011024;28;19917;-89
2023/09/16 07:20:20;;;;;;;;;;;16.80;85.00;;;;;;5023363;28;19913;-88
2023/09/16 07:22:45;;;;;;;;;;;16.80;84.80;;;;;;5022942;28;19918;-86
2023/09/16 07:25:11;;;;;;;;;;;17.10;84.10;;;;;;5026031;28;19927;-85
2023/09/16 07:27:36;;;;;;;;;;;17.10;84.30;;;;;;5008206;28;19972;-85
2023/09/16 07:30:02;;;;;;;;;;;17.10;85.10;;;;;;5015077;28;20020;-85
2023/09/16 07:32:27;;;;;;;;;;;17.10;85.30;;;;;;5013122;28;20389;-84
2023/09/16 07:34:53;;;;;;;;;;;17.10;85.40;;;;;;5006163;28;19922;-84
2023/09/16 07:37:19;;;;;;;;;;;17.20;85.40;;;;;;5013024;28;20298;-85
2023/09/16 07:39:46;;;;;;;;;;;17.50;82.80;;;;;;5008022;28;19926;-84
2023/09/16 07:42:11;;;;;;;;;;;17.50;82.10;;;;;;5008908;28;19936;-84
2023/09/16 07:44:37;;;;;;;;;;;17.50;82.50;;;;;;5009288;28;19921;-85
2023/09/16 07:47:02;;;;;;;;;;;17.60;82.00;;;;;;5026441;28;19940;-84
2023/09/16 07:49:28;;;;;;;;;;;17.70;81.50;;;;;;5007414;28;19952;-84
2023/09/16 07:51:53;;;;;;;;;;;17.70;82.40;;;;;;5024355;28;19924;-84
2023/09/16 07:54:19;;;;;;;;;;;17.80;83.50;;;;;;5014933;28;19914;-84
2023/09/16 07:56:44;;;;;;;;;;;17.80;83.70;;;;;;5022906;28;19914;-85
2023/09/16 07:59:10;;;;;;;;;;;17.80;83.00;;;;;;5037445;28;19923;-85
2023/09/16 08:01:35;;;;;;;;;;;18.00;82.20;;;;;;5033194;28;19944;-84
2023/09/16 08:04:01;;;;;;;;;;;18.00;82.50;;;;;;5034436;28;19917;-84
2023/09/16 08:06:26;;;;;;;;;;;18.10;82.30;;;;;;5032980;28;19921;-85
2023/09/16 08:08:52;;;;;;;;;;;18.10;82.30;;;;;;5023185;28;19921;-85
2023/09/16 08:11:18;;;;;;;;;;;18.10;82.00;;;;;;5007681;28;19910;-85
2023/09/16 08:13:43;;;;;;;;;;;18.30;82.10;;;;;;5005920;28;19921;-85
2023/09/16 08:16:09;;;;;;;;;;;18.30;81.80;;;;;;5029566;28;20415;-84
2023/09/16 08:18:34;;;;;;;;;;;18.30;80.90;;;;;;5009014;28;20630;-85
2023/09/16 08:21:01;;;;;;;;;;;18.40;81.30;;;;;;5006466;28;19914;-84
2023/09/16 08:23:26;;;;;;;;;;;18.40;80.80;;;;;;5003225;28;20543;-85
2023/09/16 08:25:51;;;;;;;;;;;18.50;79.40;;;;;;5013241;28;20030;-84
2023/09/16 08:28:17;;;;;;;;;;;18.50;79.70;;;;;;5005621;28;19920;-84
2023/09/16 08:30:42;;;;;;;;;;;18.60;79.20;;;;;;5019236;28;19948;-84
2023/09/16 08:33:09;;;;;;;;;;;18.60;78.90;;;;;;5006840;28;19948;-85
2023/09/16 08:35:34;;;;;;;;;;;18.60;78.70;;;;;;5006445;28;19917;-83
2023/09/16 08:38:01;;;;;;;;;;;18.60;79.40;;;;;;5014006;28;20003;-84
2023/09/16 08:40:29;;;;;;;;;;;18.70;79.50;;;;;;5003304;28;19987;-83
2023/09/16 08:43:15;;;;;;;;;;;18.90;79.10;;;;;;5009336;28;19968;-83
2023/09/16 08:45:43;;;;;;;;;;;19.20;78.60;;;;;;5013320;28;19944;-84
2023/09/16 08:48:12;;;;;;;;;;;19.10;78.60;;;;;;5023741;28;19909;-84
2023/09/16 08:50:39;;;;;;;;;;;19.10;78.80;;;;;;5011136;28;19921;-85
2023/09/16 08:53:06;;;;;;;;;;;19.10;79.10;;;;;;5022170;28;19920;-85
2023/09/16 08:55:34;;;;;;;;;;;19.20;77.90;;;;;;5020828;28;19914;-85
2023/09/16 08:58:03;;;;;;;;;;;19.30;78.10;;;;;;5010131;28;19914;-84
2023/09/16 09:00:29;;;;;;;;;;;19.30;77.40;;;;;;5015467;28;20301;-84
2023/09/16 09:02:54;;;;;;;;;;;19.30;77.30;;;;;;5008010;28;19924;-84
2023/09/16 09:05:20;;;;;;;;;;;19.30;77.70;;;;;;5010254;28;19925;-85
2023/09/16 09:07:47;;;;;;;;;;;19.30;77.40;;;;;;4998461;28;19922;-86
2023/09/16 09:10:13;;;;;;;;;;;19.40;76.80;;;;;;5025650;28;19922;-91
2023/09/16 09:12:44;;;;;;;;;;;19.60;76.20;;;;;;5005284;28;20371;-89
2023/09/16 09:15:11;;;;;;;;;;;19.60;75.90;;;;;;5005740;28;19921;-89
2023/09/16 09:17:41;;;;;;;;;;;19.50;76.30;;;;;;5006918;28;20529;-89
2023/09/16 09:20:13;;;;;;;;;;;19.60;76.20;;;;;;5019174;28;19966;-89
2023/09/16 09:22:39;;;;;;;;;;;19.70;77.00;;;;;;5010413;28;19922;-90
2023/09/16 09:25:06;;;;;;;;;;;19.80;76.50;;;;;;5014235;28;20395;-89
2023/09/16 09:27:31;;;;;;;;;;;19.90;75.50;;;;;;4996161;28;19910;-89
2023/09/16 09:29:57;;;;;;;;;;;20.00;75.20;;;;;;5006332;28;19915;-90
2023/09/16 09:32:28;;;;;;;;;;;20.10;75.90;;;;;;5015723;28;20252;-89
2023/09/16 09:34:53;;;;;;;;;;;20.10;74.50;;;;;;5001593;28;19921;-89
2023/09/16 09:37:19;;;;;;;;;;;20.10;74.70;;;;;;5009240;28;20449;-89
2023/09/16 09:39:45;;;;;;;;;;;20.20;74.80;;;;;;5011658;28;19909;-89
2023/09/16 09:42:18;;;;;;;;;;;20.20;75.50;;;;;;5009949;28;19924;-88
2023/09/16 09:44:44;;;;;;;;;;;20.30;74.40;;;;;;5006173;28;20393;-89
2023/09/16 09:47:12;;;;;;;;;;;20.30;75.30;;;;;;5009710;28;19953;-88
2023/09/16 09:49:38;;;;;;;;;;;20.30;76.20;;;;;;5016126;28;19909;-92
2023/09/16 09:52:04;;;;;;;;;;;20.50;75.20;;;;;;5004786;28;19921;-91
2023/09/16 09:54:29;;;;;;;;;;;20.40;74.50;;;;;;5014583;28;19920;-90
2023/09/16 09:56:56;;;;;;;;;;;20.60;73.90;;;;;;5000823;28;19910;-89
2023/09/16 09:59:21;;;;;;;;;;;20.60;74.40;;;;;;5005702;28;19910;-90
2023/09/16 10:01:47;;;;;;;;;;;20.60;75.40;;;;;;5025268;28;19977;-89
2023/09/16 10:04:13;;;;;;;;;;;20.60;75.20;;;;;;5005338;28;19917;-89
2023/09/16 10:06:39;;;;;;;;;;;20.60;75.10;;;;;;5003744;28;19948;-89
2023/09/16 10:09:04;;;;;;;;;;;20.80;74.10;;;;;;5009842;28;20024;-89
2023/09/16 10:11:32;;;;;;;;;;;21.00;72.10;;;;;;5006095;28;20450;-89
2023/09/16 10:13:59;;;;;;;;;;;20.90;72.80;;;;;;5011904;28;19960;-89
2023/09/16 10:16:25;;;;;;;;;;;20.90;74.00;;;;;;5021126;28;19909;-89
2023/09/16 10:18:51;;;;;;;;;;;20.90;73.90;;;;;;5013659;28;20008;-89
2023/09/16 10:21:18;;;;;;;;;;;20.90;74.60;;;;;;5021791;28;19917;-90
2023/09/16 10:23:45;;;;;;;;;;;20.90;74.90;;;;;;5019481;28;19923;-89
2023/09/16 10:26:14;;;;;;;;;;;21.00;74.40;;;;;;5035042;28;19914;-89
2023/09/16 10:28:44;;;;;;;;;;;20.90;74.70;;;;;;5019243;28;20370;-90
2023/09/16 10:31:11;;;;;;;;;;;20.90;74.20;;;;;;5039364;28;19985;-89
2023/09/16 10:33:37;;;;;;;;;;;21.20;72.90;;;;;;5014088;28;19959;-89
2023/09/16 10:36:04;;;;;;;;;;;21.40;73.00;;;;;;5003191;28;19917;-89
2023/09/16 10:38:31;;;;;;;;;;;21.50;72.80;;;;;;5010555;28;20005;-89
2023/09/16 10:40:57;;;;;;;;;;;21.50;72.70;;;;;;4997794;28;19997;-89
2023/09/16 10:43:23;;;;;;;;;;;21.50;72.50;;;;;;5038543;28;20401;-89
2023/09/16 10:45:48;;;;;;;;;;;21.50;72.60;;;;;;5010441;28;19922;-90
2023/09/16 10:48:14;;;;;;;;;;;21.60;72.60;;;;;;5013673;28;19917;-89
2023/09/16 10:50:40;;;;;;;;;;;21.50;73.70;;;;;;5013401;28;20006;-88
2023/09/16 10:53:10;;;;;;;;;;;21.60;74.10;;;;;;5007552;28;19917;-89
2023/09/16 10:55:50;;;;;;;;;;;21.70;74.70;;;;;;5006655;28;19925;-94
2023/09/16 10:58:29;;;;;;;;;;;21.90;72.70;;;;;;5010875;28;19921;-89
2023/09/16 11:00:56;;;;;;;;;;;22.00;72.10;;;;;;5006180;28;19917;-90
2023/09/16 11:03:28;;;;;;;;;;;21.90;72.00;;;;;;5014728;28;19909;-89
2023/09/16 11:05:54;;;;;;;;;;;21.90;72.00;;;;;;5009059;28;19917;-89
2023/09/16 11:08:20;;;;;;;;;;;22.10;73.00;;;;;;5006169;28;20446;-89
2023/09/16 11:10:46;;;;;;;;;;;22.10;72.70;;;;;;5013206;28;19913;-93
2023/09/16 11:13:13;;;;;;;;;;;22.10;71.70;;;;;;5011136;28;20004;-89
2023/09/16 11:15:40;;;;;;;;;;;22.40;69.50;;;;;;5007581;28;19918;-89
2023/09/16 11:18:10;;;;;;;;;;;22.30;70.40;;;;;;5031005;28;19933;-89
2023/09/16 11:20:36;;;;;;;;;;;22.20;70.70;;;;;;5021191;28;19920;-89
2023/09/16 11:23:05;;;;;;;;;;;22.20;70.90;;;;;;5006203;28;19910;-89
2023/09/16 11:25:37;;;;;;;;;;;22.20;72.80;;;;;;5006356;28;19922;-90
2023/09/16 11:28:06;;;;;;;;;;;22.20;72.90;;;;;;5012036;28;19920;-90
2023/09/16 11:30:32;;;;;;;;;;;22.20;72.50;;;;;;5003155;28;19909;-89
2023/09/16 11:32:57;;;;;;;;;;;22.30;72.20;;;;;;5017807;28;20366;-89
2023/09/16 11:35:29;;;;;;;;;;;22.30;72.30;;;;;;5024431;28;19914;-90
2023/09/16 11:37:55;;;;;;;;;;;22.40;71.20;;;;;;5009358;28;19917;-89
2023/09/16 11:40:27;;;;;;;;;;;22.60;69.60;;;;;;5016817;28;19913;-89
2023/09/16 11:42:54;;;;;;;;;;;22.80;70.20;;;;;;5006159;28;20163;-89
2023/09/16 11:45:20;;;;;;;;;;;22.70;69.90;;;;;;5010542;28;20020;-88
2023/09/16 11:47:49;;;;;;;;;;;22.70;69.70;;;;;;5010146;28;19921;-90
2023/09/16 11:50:26;;;;;;;;;;;22.60;69.90;;;;;;5028170;28;19918;-89
2023/09/16 11:52:51;;;;;;;;;;;22.70;71.40;;;;;;5011834;28;19960;-89
2023/09/16 11:55:18;;;;;;;;;;;22.60;72.50;;;;;;5012928;28;19964;-89
2023/09/16 11:57:45;;;;;;;;;;;22.70;72.20;;;;;;5013115;28;19917;-89
2023/09/16 12:00:11;;;;;;;;;;;22.80;70.20;;;;;;5031772;28;19914;-89
2023/09/16 12:02:37;;;;;;;;;;;22.80;70.20;;;;;;5011431;28;19924;-89
2023/09/16 12:05:03;;;;;;;;;;;22.90;71.20;;;;;;5017679;28;19924;-89
2023/09/16 12:07:32;;;;;;;;;;;22.90;71.70;;;;;;5016978;28;19913;-89
2023/09/16 12:10:05;;;;;;;;;;;23.00;70.70;;;;;;5016427;28;19929;-90
2023/09/16 12:12:31;;;;;;;;;;;23.00;71.60;;;;;;5022271;28;19941;-89
2023/09/16 12:15:01;;;;;;;;;;;23.10;71.70;;;;;;5009006;28;19913;-90
2023/09/16 12:17:27;;;;;;;;;;;23.10;70.50;;;;;;5029326;28;20429;-89
2023/09/16 12:19:53;;;;;;;;;;;23.10;71.30;;;;;;5012092;28;19960;-90
2023/09/16 12:22:19;;;;;;;;;;;23.20;71.60;;;;;;5008469;28;19917;-89
2023/09/16 12:24:45;;;;;;;;;;;23.30;72.10;;;;;;5006363;28;19917;-88
2023/09/16 12:27:10;;;;;;;;;;;23.40;71.50;;;;;;5014675;28;19932;-89
2023/09/16 12:29:36;;;;;;;;;;;23.40;70.10;;;;;;5013353;28;19913;-90
2023/09/16 12:32:12;;;;;;;;;;;23.50;71.70;;;;;;5005032;28;19921;-89
2023/09/16 12:34:37;;;;;;;;;;;23.60;71.60;;;;;;5007553;28;19921;-89
2023/09/16 12:37:03;;;;;;;;;;;23.60;69.30;;;;;;5009406;28;19917;-89
2023/09/16 12:39:33;;;;;;;;;;;23.50;69.30;;;;;;5008287;28;19961;-90
2023/09/16 12:41:59;;;;;;;;;;;23.50;68.80;;;;;;5003289;28;20389;-89
2023/09/16 12:44:25;;;;;;;;;;;23.50;69.20;;;;;;5011696;28;19918;-91
2023/09/16 12:46:50;;;;;;;;;;;23.50;69.20;;;;;;5006438;28;20404;-90
2023/09/16 12:49:16;;;;;;;;;;;23.60;69.30;;;;;;5020677;28;19941;-89
2023/09/16 12:56:53;;;;;;;;;;;24.00;68.50;;;;;;5025876;28;20337;-89
2023/09/16 13:00:30;;;;;;;;;;;24.00;68.50;;;;;;4999476;28;19913;-89
2023/09/16 13:02:56;;;;;;;;;;;24.00;68.30;;;;;;4958497;29;19915;-89
2023/09/16 13:05:51;;;;;;;;;;;24.10;67.30;;;;;;4956959;29;19914;-89
2023/09/16 13:08:38;;;;;;;;;;;24.10;67.90;;;;;;4999013;28;19968;-88
2023/09/16 13:11:06;;;;;;;;;;;24.20;67.60;;;;;;5025884;28;19917;-89
2023/09/16 13:26:32;;;;;;;;;;;;;;;;;;;;;
2023/09/16 13:52:27;;;;;;;;;;;24.50;66.00;;;;;;5006745;28;20343;-91
2023/09/16 13:55:39;;;;;;;;;;;24.50;66.20;;;;;;4990116;28;19913;-89
2023/09/16 13:58:22;;;;;;;;;;;24.50;66.40;;;;;;4945328;28;19925;-90
2023/09/16 14:00:54;;;;;;;;;;;24.50;66.50;;;;;;4985530;28;20581;-91
2023/09/16 14:03:19;;;;;;;;;;;24.50;67.80;;;;;;5010717;28;19920;-89
2023/09/16 14:05:45;;;;;;;;;;;24.40;67.90;;;;;;4985771;28;19921;-89
2023/09/16 14:08:11;;;;;;;;;;;24.30;68.60;;;;;;4991069;28;19924;-90
2023/09/16 14:10:36;;;;;;;;;;;24.50;66.80;;;;;;4989276;28;19913;-90
2023/09/16 14:13:11;;;;;;;;;;;24.40;66.30;;;;;;4984338;28;19913;-91
2023/09/16 14:18:25;;;;;;;;;;;24.50;66.40;;;;;;4984559;28;19933;-90
2023/09/16 14:20:50;;;;;;;;;;;24.80;65.90;;;;;;4998144;28;19914;-90
2023/09/16 14:23:19;;;;;;;;;;;24.90;64.50;;;;;;4983342;28;19920;-90
2023/09/16 14:25:48;;;;;;;;;;;24.80;64.90;;;;;;4983682;28;19939;-89
2023/09/16 14:45:46;;;;;;;;;;;;;;;;;;;;;
2023/09/16 15:09:56;;;;;;;;;;;25.10;64.20;;;;;;4345819;23;19931;-85
2023/09/16 15:12:22;;;;;;;;;;;25.00;63.90;;;;;;4960629;28;19945;-85
2023/09/16 15:14:48;;;;;;;;;;;24.90;64.10;;;;;;4957563;28;19922;-84
2023/09/16 15:17:14;;;;;;;;;;;24.70;66.40;;;;;;4959884;29;19911;-85
2023/09/16 15:19:39;;;;;;;;;;;24.70;66.20;;;;;;4962801;29;19934;-84
2023/09/16 15:22:05;;;;;;;;;;;24.60;66.80;;;;;;4961831;28;19915;-84
2023/09/16 15:24:30;;;;;;;;;;;24.60;67.60;;;;;;4963838;29;19910;-85
2023/09/16 15:26:57;;;;;;;;;;;24.60;67.90;;;;;;4963562;28;19922;-84
2023/09/16 15:29:23;;;;;;;;;;;24.50;68.50;;;;;;4963661;28;19921;-85
2023/09/16 15:31:48;;;;;;;;;;;24.60;68.30;;;;;;4963087;28;19915;-84
2023/09/16 15:34:14;;;;;;;;;;;24.80;67.90;;;;;;4961482;28;19910;-84
2023/09/16 15:36:39;;;;;;;;;;;24.90;67.10;;;;;;4961671;28;19915;-85
2023/09/16 15:39:05;;;;;;;;;;;24.80;67.40;;;;;;4959258;29;19977;-85
2023/09/16 15:41:30;;;;;;;;;;;24.90;66.90;;;;;;4960864;28;20009;-85